Time;durP1;ratioP1;P1;durP2;ratioP2;P2;SDS_P1;SDS_P2;PMS_P1;PMS_P2;Temp;Humidity;BMP_temperature;BMP_pressure;BME280_temperature;BME280_humidity;BME280_pressure;Samples;Min_cycle;Max_cycle;Signal;HPM_P1;HPM_P2
2023/04/11 00:00:51;;;;;;;1999.90;999.90;;;;;;;4.63;100.00;98225.41;5132133;27;20023;-75
2023/04/11 00:03:18;;;;;;;1999.90;999.90;;;;;;;4.65;100.00;98207.00;5113576;28;20406;-75
2023/04/11 00:05:44;;;;;;;1999.90;999.90;;;;;;;4.48;100.00;98203.53;5131981;28;20027;-75
2023/04/11 00:08:09;;;;;;;1999.90;999.90;;;;;;;4.43;100.00;98214.28;5132191;27;20046;-74
2023/04/11 00:10:34;;;;;;;1999.90;999.90;;;;;;;4.29;100.00;98217.34;5132382;28;20046;-74
2023/04/11 00:13:00;;;;;;;1999.90;999.90;;;;;;;4.24;100.00;98201.03;5133988;28;20487;-73
2023/04/11 00:15:25;;;;;;;1999.90;999.90;;;;;;;4.17;100.00;98194.97;5114774;27;20168;-75
2023/04/11 00:17:54;;;;;;;1999.90;999.90;;;;;;;4.16;100.00;98198.75;5132386;27;20080;-77
2023/04/11 00:20:20;;;;;;;1999.90;999.90;;;;;;;4.13;100.00;98188.44;5131721;28;20406;-74
2023/04/11 00:22:45;;;;;;;1999.90;999.90;;;;;;;4.12;100.00;98177.84;5131916;27;20019;-74
2023/04/11 00:25:11;;;;;;;1999.90;999.90;;;;;;;4.17;100.00;98180.59;5132303;28;20106;-74
2023/04/11 00:27:37;;;;;;;1999.90;999.90;;;;;;;4.08;100.00;98168.56;5132204;27;20023;-73
2023/04/11 00:30:06;;;;;;;1999.90;999.90;;;;;;;3.98;100.00;98149.50;5133138;28;20015;-76
2023/04/11 00:32:31;;;;;;;1999.90;999.90;;;;;;;4.21;100.00;98170.94;5133224;28;20031;-75
2023/04/11 00:34:56;;;;;;;1999.90;999.90;;;;;;;4.19;100.00;98168.50;5132231;27;20012;-75
2023/04/11 00:37:22;;;;;;;1999.90;999.90;;;;;;;4.25;100.00;98170.19;5133808;27;20060;-77
2023/04/11 00:39:57;;;;;;;1999.90;999.90;;;;;;;4.20;100.00;98159.28;5133490;28;20024;-74
2023/04/11 00:42:23;;;;;;;;;;;;;;;4.07;100.00;98150.72;5131838;28;20031;-76
2023/04/11 00:44:48;;;;;;;;;;;;;;;4.25;100.00;98167.50;5131995;27;19964;-75
2023/04/11 00:47:14;;;;;;;1999.90;999.90;;;;;;;4.18;100.00;98157.91;5132044;27;19913;-77
2023/04/11 00:49:40;;;;;;;1999.90;999.90;;;;;;;4.17;100.00;98170.59;5131617;28;20470;-76
2023/04/11 00:52:06;;;;;;;1999.90;999.90;;;;;;;4.16;100.00;98168.16;5131372;28;20031;-75
2023/04/11 00:54:32;;;;;;;1999.90;999.90;;;;;;;4.07;100.00;98148.81;5131349;28;20123;-76
2023/04/11 00:57:00;;;;;;;1999.90;999.90;;;;;;;4.07;100.00;98156.91;5131495;28;20483;-76
2023/04/11 00:59:27;;;;;;;1999.90;999.90;;;;;;;3.91;100.00;98132.63;5131301;27;20023;-75
2023/04/11 01:01:53;;;;;;;1999.90;999.90;;;;;;;3.88;100.00;98139.34;5134392;27;20451;-75
2023/04/11 01:04:22;;;;;;;1999.90;999.90;;;;;;;3.74;100.00;98121.81;5136004;27;20031;-74
2023/04/11 01:06:51;;;;;;;1999.90;999.90;;;;;;;3.89;100.00;98140.13;5117947;27;20476;-76
2023/04/11 01:09:20;;;;;;;1999.90;999.90;;;;;;;3.95;100.00;98139.16;5136473;27;20496;-74
2023/04/11 01:11:48;;;;;;;1999.90;999.90;;;;;;;3.98;100.00;98139.47;5134939;27;20091;-77
2023/04/11 01:14:15;;;;;;;1999.90;999.90;;;;;;;4.00;100.00;98139.25;5134880;27;20027;-75
2023/04/11 01:16:42;;;;;;;1999.90;999.90;;;;;;;4.01;100.00;98132.78;5135111;27;20023;-76
2023/04/11 01:19:08;;;;;;;1999.90;999.90;;;;;;;3.95;100.00;98126.44;5135501;27;20105;-74
2023/04/11 01:21:35;;;;;;;1999.90;999.90;;;;;;;3.87;100.00;98113.34;5135088;27;20128;-75
2023/04/11 01:24:02;;;;;;;1999.90;999.90;;;;;;;3.82;100.00;98113.28;5135017;27;20047;-75
2023/04/11 01:26:28;;;;;;;1999.90;999.90;;;;;;;3.94;100.00;98119.41;5134992;27;20454;-77
2023/04/11 01:28:53;;;;;;;1999.90;999.90;;;;;;;3.91;100.00;98129.91;5134978;27;20110;-74
2023/04/11 01:31:18;;;;;;;1999.90;999.90;;;;;;;3.92;100.00;98129.66;5116158;27;20029;-74
2023/04/11 01:33:44;;;;;;;1999.90;999.90;;;;;;;3.77;100.00;98122.13;5135024;27;20034;-75
2023/04/11 01:36:09;;;;;;;1999.90;999.90;;;;;;;3.78;100.00;98133.78;5134504;27;20031;-74
2023/04/11 01:38:35;;;;;;;1999.90;999.90;;;;;;;3.79;100.00;98135.38;5135160;27;20027;-74
2023/04/11 01:41:01;;;;;;;1999.90;999.90;;;;;;;3.78;100.00;98139.19;5134707;27;20035;-76
2023/04/11 01:43:26;;;;;;;1999.90;999.90;;;;;;;3.66;100.00;98103.31;5134842;27;20048;-74
2023/04/11 01:45:52;;;;;;;1999.90;999.90;;;;;;;3.71;100.00;98106.91;5134889;27;20106;-75
2023/04/11 01:48:19;;;;;;;1999.90;999.90;;;;;;;3.85;100.00;98111.97;5135561;27;20027;-75
2023/04/11 01:50:44;;;;;;;1999.90;999.90;;;;;;;3.85;100.00;98107.38;5135070;27;20023;-74
2023/04/11 01:53:09;;;;;;;1999.90;999.90;;;;;;;3.88;100.00;98111.47;5135585;27;20034;-76
2023/04/11 01:55:35;;;;;;;1999.90;999.90;;;;;;;3.87;100.00;98093.59;5134928;27;20035;-76
2023/04/11 01:58:00;;;;;;;1999.90;999.90;;;;;;;3.94;100.00;98111.28;5136139;27;20027;-76
2023/04/11 02:00:25;;;;;;;1999.90;999.90;;;;;;;3.76;100.00;98087.19;5136844;27;20023;-77
2023/04/11 02:02:51;;;;;;;1999.90;999.90;;;;;;;3.86;100.00;98097.34;5138411;27;20031;-79
2023/04/11 02:05:16;;;;;;;1999.90;999.90;;;;;;;3.85;100.00;98095.72;5138385;27;20472;-76
2023/04/11 02:07:41;;;;;;;1999.90;999.90;;;;;;;3.85;100.00;98090.31;5137335;27;20039;-75
2023/04/11 02:10:07;;;;;;;1999.90;999.90;;;;;;;3.80;100.00;98093.75;5136841;27;20039;-77
2023/04/11 02:12:32;;;;;;;1999.90;999.90;;;;;;;3.76;100.00;98081.78;5135049;27;20031;-73
2023/04/11 02:14:58;;;;;;;1999.90;999.90;;;;;;;3.87;100.00;98088.19;5133743;27;20096;-76
2023/04/11 02:17:24;;;;;;;1999.90;999.90;;;;;;;3.90;100.00;98074.16;5133638;27;20062;-76
2023/04/11 02:19:50;;;;;;;1999.90;999.90;;;;;;;3.99;100.00;98081.59;5133829;27;20057;-76
2023/04/11 02:22:16;;;;;;;1999.90;999.90;;;;;;;3.90;100.00;98055.22;5115033;27;20027;-74
2023/04/11 02:24:42;;;;;;;1999.90;999.90;;;;;;;3.95;100.00;98060.69;5133778;27;20027;-76
2023/04/11 02:27:08;;;;;;;1999.90;999.90;;;;;;;3.85;100.00;98061.38;5133471;27;20027;-76
2023/04/11 02:29:34;;;;;;;1999.90;999.90;;;;;;;3.75;100.00;98036.91;5120812;27;20055;-77
2023/04/11 02:31:59;;;;;;;1999.90;999.90;;;;;;;3.70;100.00;98034.94;5132469;27;20031;-76
2023/04/11 02:34:25;;;;;;;1999.90;999.90;;;;;;;3.83;100.00;98049.97;5127602;27;20023;-75
2023/04/11 02:36:51;;;;;;;1999.90;999.90;;;;;;;3.84;100.00;98046.22;5113432;28;20030;-77
2023/04/11 02:39:17;;;;;;;1999.90;999.90;;;;;;;3.91;100.00;98046.03;5149076;27;20467;-76
2023/04/11 02:41:42;;;;;;;1999.90;999.90;;;;;;;3.94;100.00;98057.19;5154135;27;20030;-76
2023/04/11 02:44:10;;;;;;;1999.90;999.90;;;;;;;3.72;100.00;98038.22;5153062;27;20026;-76
2023/04/11 02:46:35;;;;;;;1999.90;999.90;;;;;;;3.70;100.00;98044.91;5153748;27;20027;-76
2023/04/11 02:49:01;;;;;;;1999.90;999.90;;;;;;;3.62;100.00;98027.25;5153665;27;20031;-77
2023/04/11 02:51:27;;;;;;;1999.90;999.90;;;;;;;3.96;100.00;98044.22;5153303;27;20023;-76
2023/04/11 02:53:52;;;;;;;1999.90;999.90;;;;;;;3.92;100.00;98045.78;5153539;27;20023;-76
2023/04/11 02:56:18;;;;;;;1999.90;999.90;;;;;;;3.99;100.00;98038.28;5153366;27;20078;-75
2023/04/11 02:58:45;;;;;;;1999.90;999.90;;;;;;;4.04;100.00;98037.56;5155206;27;20475;-81
2023/04/11 03:01:17;;;;;;;1999.90;999.90;;;;;;;3.95;100.00;98041.75;5155039;27;20025;-76
2023/04/11 03:03:43;;;;;;;1999.90;999.90;;;;;;;3.88;100.00;98036.53;5153832;27;20014;-76
2023/04/11 03:06:09;;;;;;;1999.90;999.90;;;;;;;3.92;100.00;98026.84;5154430;27;20037;-76
2023/04/11 03:08:36;;;;;;;1999.90;999.90;;;;;;;3.89;100.00;98021.91;5153627;27;20030;-76
2023/04/11 03:11:02;;;;;;;1999.90;999.90;;;;;;;3.82;100.00;98015.06;5153308;27;20026;-76
2023/04/11 03:13:27;;;;;;;1999.90;999.90;;;;;;;3.85;100.00;98026.22;5153407;27;20022;-77
2023/04/11 03:15:53;;;;;;;1999.90;999.90;;;;;;;3.83;100.00;98025.63;5154694;27;20069;-77
2023/04/11 03:18:20;;;;;;;1999.90;999.90;;;;;;;3.83;100.00;98011.28;5154183;27;20030;-78
2023/04/11 03:20:45;;;;;;;1999.90;999.90;;;;;;;3.79;100.00;98000.16;5153694;27;20052;-76
2023/04/11 03:23:11;;;;;;;1999.90;999.90;;;;;;;3.73;100.00;97990.31;5153015;27;20417;-75
2023/04/11 03:25:36;;;;;;;1999.90;999.90;;;;;;;3.61;100.00;97985.03;5153768;27;20019;-75
2023/04/11 03:28:02;;;;;;;1999.90;999.90;;;;;;;3.55;100.00;97977.09;5155918;27;20037;-78
2023/04/11 03:30:28;;;;;;;1999.90;999.90;;;;;;;3.55;100.00;97998.75;5154625;27;20022;-76
2023/04/11 03:32:53;;;;;;;1999.90;999.90;;;;;;;3.64;100.00;98008.88;5152743;27;20023;-76
2023/04/11 03:35:19;;;;;;;1999.90;999.90;;;;;;;3.67;100.00;98018.38;5153719;27;20407;-75
2023/04/11 03:37:45;;;;;;;1999.90;999.90;;;;;;;3.55;100.00;98009.56;5154634;27;20117;-74
2023/04/11 03:40:10;;;;;;;1999.90;999.90;;;;;;;3.58;100.00;97982.84;5156449;27;20051;-80
2023/04/11 03:42:36;;;;;;;1999.90;999.90;;;;;;;3.71;100.00;97992.47;5156244;27;20026;-76
2023/04/11 03:45:01;;;;;;;1999.90;999.90;;;;;;;3.77;100.00;98003.13;5149523;27;20031;-75
2023/04/11 03:47:27;;;;;;;1999.90;999.90;;;;;;;3.68;100.00;98006.50;5132488;27;20030;-75
2023/04/11 03:49:52;;;;;;;1999.90;999.90;;;;;;;3.73;100.00;97996.56;5132605;27;20548;-75
2023/04/11 03:52:17;;;;;;;1999.90;999.90;;;;;;;3.75;100.00;97999.03;5133090;27;20027;-74
2023/04/11 03:54:43;;;;;;;1999.90;999.90;;;;;;;3.78;100.00;97999.34;5134015;27;20015;-76
2023/04/11 03:57:09;;;;;;;1999.90;999.90;;;;;;;3.76;100.00;97996.06;5132016;27;20034;-74
2023/04/11 03:59:34;;;;;;;1999.90;999.90;;;;;;;3.81;100.00;98014.25;5131767;27;20030;-74
2023/04/11 04:01:59;;;;;;;1999.90;999.90;;;;;;;3.78;100.00;97998.53;5131634;27;20020;-76
2023/04/11 04:04:25;;;;;;;1999.90;999.90;;;;;;;3.81;100.00;98008.03;5131757;28;20028;-76
2023/04/11 04:06:55;;;;;;;1999.90;999.90;;;;;;;3.83;100.00;98006.69;5131364;27;20031;-74
2023/04/11 04:09:20;;;;;;;1999.90;999.90;;;;;;;3.60;100.00;97986.09;5131654;28;20043;-76
2023/04/11 04:11:46;;;;;;;1999.90;999.90;;;;;;;3.74;100.00;97991.97;5129143;27;20067;-74
2023/04/11 04:14:11;;;;;;;1999.90;999.90;;;;;;;3.62;100.00;97977.75;5119998;28;20023;-74
2023/04/11 04:16:36;;;;;;;1999.90;999.90;;;;;;;3.46;100.00;97987.53;5130822;28;20027;-76
2023/04/11 04:19:02;;;;;;;1999.90;999.90;;;;;;;3.46;100.00;97973.19;5113022;28;20056;-74
2023/04/11 04:21:31;;;;;;;1999.90;999.90;;;;;;;3.64;100.00;97975.59;5131076;28;20019;-75
2023/04/11 04:24:02;;;;;;;1999.90;999.90;;;;;;;3.61;100.00;97973.41;5131081;28;20110;-75
2023/04/11 04:26:29;;;;;;;1999.90;999.90;;;;;;;3.65;100.00;97967.25;5131320;27;20027;-75
2023/04/11 04:29:03;;;;;;;1999.90;999.90;;;;;;;3.63;100.00;97952.34;5113018;28;20061;-74
2023/04/11 04:31:32;;;;;;;1999.90;999.90;;;;;;;3.52;100.00;97950.56;5115742;28;20038;-75
2023/04/11 04:34:10;;;;;;;1999.90;999.90;;;;;;;3.54;100.00;97967.38;5118952;28;20023;-76
2023/04/11 04:36:46;;;;;;;1999.90;999.90;;;;;;;3.60;100.00;97967.16;5133631;27;20672;-75
2023/04/11 04:39:16;;;;;;;1999.90;999.90;;;;;;;3.70;100.00;97969.19;5135580;27;20075;-76
2023/04/11 04:41:48;;;;;;;1999.90;999.90;;;;;;;3.81;100.00;97976.38;5135846;27;20075;-76
2023/04/11 04:44:15;;;;;;;1999.90;999.90;;;;;;;3.83;100.00;97974.25;5132502;27;20098;-75
2023/04/11 04:46:40;;;;;;;1999.90;999.90;;;;;;;3.77;100.00;97970.66;5138411;27;20510;-75
2023/04/11 04:49:07;;;;;;;1999.90;999.90;;;;;;;3.82;100.00;97967.22;5137376;27;20023;-76
2023/04/11 04:51:32;;;;;;;1999.90;999.90;;;;;;;3.83;100.00;97962.59;5136630;27;20020;-75
2023/04/11 04:53:58;;;;;;;1999.90;999.90;;;;;;;3.92;100.00;97970.00;5135442;27;20031;-75
2023/04/11 04:56:27;;;;;;;1999.90;999.90;;;;;;;4.00;100.00;97963.34;5141933;27;20055;-80
2023/04/11 04:58:53;;;;;;;1999.90;999.90;;;;;;;4.10;100.00;97964.28;5134475;27;20580;-76
2023/04/11 05:01:19;;;;;;;1999.90;999.90;;;;;;;4.16;100.00;97959.75;5133914;27;20035;-74
2023/04/11 05:03:45;;;;;;;1999.90;999.90;;;;;;;4.19;100.00;97981.72;5133374;27;20019;-75
2023/04/11 05:06:12;;;;;;;1999.90;999.90;;;;;;;4.28;100.00;97984.78;5129107;27;20535;-76
2023/04/11 05:08:37;;;;;;;1999.90;999.90;;;;;;;4.33;100.00;97974.81;5133980;27;20526;-74
2023/04/11 05:11:02;;;;;;;1999.90;999.90;;;;;;;4.38;100.00;97968.66;5133636;27;20035;-76
2023/04/11 05:13:28;;;;;;;1999.90;999.90;;;;;;;4.37;100.00;97952.66;5133774;27;20012;-75
2023/04/11 05:15:53;;;;;;;1999.90;999.90;;;;;;;4.38;100.00;97960.53;5134662;27;20023;-75
2023/04/11 05:18:18;;;;;;;1999.90;999.90;;;;;;;4.50;100.00;97961.19;5132882;27;20059;-76
2023/04/11 05:20:44;;;;;;;1999.90;999.90;;;;;;;4.45;100.00;97946.78;5132205;27;20023;-76
2023/04/11 05:23:10;;;;;;;1999.90;999.90;;;;;;;4.46;100.00;97945.69;5114656;27;20027;-77
2023/04/11 05:25:35;;;;;;;1999.90;999.90;;;;;;;4.46;100.00;97934.88;5130392;27;20026;-74
2023/04/11 05:28:00;;;;;;;1999.90;999.90;;;;;;;4.46;100.00;97940.28;5113540;27;20026;-76
2023/04/11 05:30:26;;;;;;;1999.90;999.90;;;;;;;4.45;100.00;97938.66;5132112;27;20588;-76
2023/04/11 05:32:51;;;;;;;1999.90;999.90;;;;;;;4.47;100.00;97937.34;5132231;27;20486;-79
2023/04/11 05:35:17;;;;;;;1999.90;999.90;;;;;;;4.49;100.00;97934.34;5137048;27;20055;-74
2023/04/11 05:37:43;;;;;;;1999.90;999.90;;;;;;;4.38;100.00;97909.09;5132113;27;20019;-75
2023/04/11 05:40:09;;;;;;;1999.90;999.90;;;;;;;4.59;100.00;97920.91;5132204;27;20473;-77
2023/04/11 05:42:34;;;;;;;1999.90;999.90;;;;;;;4.52;100.00;97910.28;5112989;27;20112;-76
2023/04/11 05:45:00;;;;;;;1999.90;999.90;;;;;;;4.56;100.00;97918.72;5132243;27;20034;-76
2023/04/11 05:47:25;;;;;;;1999.90;999.90;;;;;;;4.55;100.00;97930.63;5132496;27;20521;-77
2023/04/11 05:49:50;;;;;;;1999.90;999.90;;;;;;;4.32;100.00;97908.19;5133446;27;20054;-74
2023/04/11 05:52:16;;;;;;;1999.90;999.90;;;;;;;4.61;100.00;97921.47;5113387;27;20103;-74
2023/04/11 05:54:41;;;;;;;1999.90;999.90;;;;;;;4.61;100.00;97916.88;5133006;27;20122;-75
2023/04/11 05:57:06;;;;;;;1999.90;999.90;;;;;;;4.51;100.00;97910.56;5132930;27;20027;-75
2023/04/11 05:59:34;;;;;;;1999.90;999.90;;;;;;;4.70;100.00;97911.78;5114820;27;20015;-74
2023/04/11 06:02:00;;;;;;;1999.90;999.90;;;;;;;4.57;100.00;97906.81;5133463;27;20556;-74
2023/04/11 06:04:26;;;;;;;1999.90;999.90;;;;;;;4.61;100.00;97897.06;5133566;27;20027;-78
2023/04/11 06:06:54;;;;;;;1999.90;999.90;;;;;;;4.83;100.00;97905.94;5147891;27;20038;-76
2023/04/11 06:09:20;;;;;;;1999.90;999.90;;;;;;;4.90;100.00;97898.41;5152790;27;20066;-75
2023/04/11 06:11:45;;;;;;;1999.90;999.90;;;;;;;5.03;100.00;97897.94;5151921;27;20099;-76
2023/04/11 06:14:10;;;;;;;1999.90;999.90;;;;;;;5.03;100.00;97886.28;5138178;27;20135;-75
2023/04/11 06:16:37;;;;;;;1999.90;999.90;;;;;;;5.24;100.00;97901.59;5132474;27;20133;-74
2023/04/11 06:19:03;;;;;;;1999.90;999.90;;;;;;;5.24;100.00;97894.28;5131689;27;20117;-75
2023/04/11 06:21:30;;;;;;;1999.90;999.90;;;;;;;5.33;100.00;97892.69;5133779;27;20031;-77
2023/04/11 06:23:56;;;;;;;1999.90;999.90;;;;;;;5.40;100.00;97904.13;5134912;27;20383;-75
2023/04/11 06:26:21;;;;;;;1999.90;999.90;;;;;;;5.40;100.00;97916.88;5132154;27;20023;-75
2023/04/11 06:28:46;;;;;;;1999.90;999.90;;;;;;;5.35;100.00;97917.69;5132408;27;20019;-76
2023/04/11 06:31:11;;;;;;;1999.90;999.90;;;;;;;5.46;100.00;97928.56;5113221;27;20061;-74
2023/04/11 06:33:37;;;;;;;1999.90;999.90;;;;;;;5.52;100.00;97938.34;5114981;27;20027;-77
2023/04/11 06:36:02;;;;;;;1999.90;999.90;;;;;;;5.57;100.00;97930.25;5115408;27;20114;-75
2023/04/11 06:38:28;;;;;;;1999.90;999.90;;;;;;;5.58;100.00;97927.28;5134534;27;20031;-76
2023/04/11 06:40:55;;;;;;;1999.90;999.90;;;;;;;5.68;100.00;97926.50;5134397;27;20476;-76
2023/04/11 06:43:21;;;;;;;1999.90;999.90;;;;;;;5.62;100.00;97919.44;5133201;27;20050;-75
2023/04/11 06:45:46;;;;;;;1999.90;999.90;;;;;;;5.68;100.00;97899.38;5114462;27;20031;-75
2023/04/11 06:48:12;;;;;;;1999.90;999.90;;;;;;;5.95;100.00;97927.22;5133153;27;20107;-75
2023/04/11 06:50:40;;;;;;;1999.90;999.90;;;;;;;5.85;100.00;97917.13;5133024;27;20031;-75
2023/04/11 06:53:06;;;;;;;1999.90;999.90;;;;;;;5.99;100.00;97911.19;5134074;27;20069;-77
2023/04/11 06:55:31;;;;;;;1999.90;999.90;;;;;;;6.01;100.00;97904.44;5135399;27;20495;-77
2023/04/11 06:57:56;;;;;;;1999.90;999.90;;;;;;;5.98;100.00;97907.69;5119131;27;20058;-75
2023/04/11 07:00:22;;;;;;;1999.90;999.90;;;;;;;5.61;100.00;97909.66;5117056;27;20476;-76
2023/04/11 07:02:47;;;;;;;1999.90;999.90;;;;;;;5.79;100.00;97890.22;5115981;27;20038;-75
2023/04/11 07:05:13;;;;;;;1999.90;999.90;;;;;;;5.90;100.00;97875.59;5115834;27;20053;-76
2023/04/11 07:07:39;;;;;;;1999.90;999.90;;;;;;;6.07;100.00;97870.78;5133600;27;20032;-77
2023/04/11 07:10:05;;;;;;;1999.90;999.90;;;;;;;6.06;100.00;97868.31;5132645;27;20555;-75
2023/04/11 07:12:31;;;;;;;1999.90;999.90;;;;;;;6.18;100.00;97866.16;5132614;27;20047;-75
2023/04/11 07:14:56;;;;;;;1999.90;999.90;;;;;;;6.24;100.00;97855.03;5132631;27;20513;-76
2023/04/11 07:17:22;;;;;;;1999.90;999.90;;;;;;;6.61;100.00;97876.50;5132650;27;20035;-76
2023/04/11 07:19:47;;;;;;;1999.90;999.90;;;;;;;6.45;100.00;97862.09;5132735;27;20022;-74
2023/04/11 07:22:12;;;;;;;1999.90;999.90;;;;;;;6.70;100.00;97841.47;5132318;27;20023;-75
2023/04/11 07:24:38;;;;;;;1999.90;999.90;;;;;;;7.03;100.00;97873.50;5113837;27;20452;-75
2023/04/11 07:27:03;;;;;;;1999.90;999.90;;;;;;;6.72;100.00;97877.34;5132183;27;20485;-75
2023/04/11 07:29:29;;;;;;;1999.90;999.90;;;;;;;6.83;100.00;97859.94;5132174;27;20027;-77
2023/04/11 07:31:55;;;;;;;1999.90;999.90;;;;;;;7.15;100.00;97862.31;5131927;27;20498;-77
2023/04/11 07:34:20;;;;;;;1999.90;999.90;;;;;;;7.40;100.00;97873.13;5132327;27;20026;-76
2023/04/11 07:36:46;;;;;;;1999.90;999.90;;;;;;;7.34;100.00;97863.38;5132266;27;20031;-77
2023/04/11 07:39:13;;;;;;;1999.90;999.90;;;;;;;7.51;100.00;97858.44;5131765;27;20023;-74
2023/04/11 07:41:39;;;;;;;1999.90;999.90;;;;;;;7.65;100.00;97855.91;5131712;27;20031;-76
2023/04/11 07:44:06;;;;;;;1999.90;999.90;;;;;;;7.59;100.00;97867.91;5131805;27;20022;-77
2023/04/11 07:46:31;;;;;;;1999.90;999.90;;;;;;;7.64;100.00;97862.47;5131827;27;20073;-78
2023/04/11 07:48:56;;;;;;;1999.90;999.90;;;;;;;7.83;100.00;97872.41;5132625;27;20494;-75
2023/04/11 07:51:22;;;;;;;1999.90;999.90;;;;;;;7.97;100.00;97864.47;5131583;27;20015;-77
2023/04/11 07:53:47;;;;;;;1999.90;999.90;;;;;;;8.15;100.00;97855.63;5131629;27;20070;-76
2023/04/11 07:56:13;;;;;;;1999.90;999.90;;;;;;;8.01;100.00;97824.69;5131626;27;20015;-75
2023/04/11 07:58:40;;;;;;;1999.90;999.90;;;;;;;8.21;100.00;97835.44;5131438;27;20034;-75
2023/04/11 08:01:17;;;;;;;1999.90;999.90;;;;;;;8.21;99.88;97823.72;5131626;27;20027;-75
2023/04/11 08:03:43;;;;;;;1999.90;999.90;;;;;;;8.24;99.81;97823.97;5131502;27;20023;-75
2023/04/11 08:06:10;;;;;;;1999.90;999.90;;;;;;;7.31;100.00;97814.94;5131916;27;20038;-75
2023/04/11 08:08:35;;;;;;;1999.90;999.90;;;;;;;7.90;100.00;97825.81;5130913;27;20035;-76
2023/04/11 08:11:04;;;;;;;1999.90;999.90;;;;;;;7.65;100.00;97834.13;5134272;27;20080;-77
2023/04/11 08:13:32;;;;;;;1999.90;999.90;;;;;;;7.98;100.00;97844.31;5117490;27;20039;-75
2023/04/11 08:15:57;;;;;;;1999.90;999.90;;;;;;;8.25;100.00;97839.22;5135647;27;20068;-76
2023/04/11 08:18:23;;;;;;;1999.90;999.90;;;;;;;8.53;98.77;97834.97;5135774;27;20456;-75
2023/04/11 08:20:48;;;;;;;1999.90;999.90;;;;;;;8.37;99.78;97836.16;5135710;27;20028;-76
2023/04/11 08:23:14;;;;;;;1999.90;999.90;;;;;;;8.75;99.52;97842.69;5136162;27;20030;-76
2023/04/11 08:25:40;;;;;;;1999.90;999.90;;;;;;;8.55;98.24;97847.19;5135899;27;20023;-79
2023/04/11 08:28:08;;;;;;;1999.90;999.90;;;;;;;8.93;96.21;97834.59;5135749;27;20064;-77
2023/04/11 08:30:34;;;;;;;1999.90;999.90;;;;;;;8.64;97.76;97825.63;5135895;27;20034;-75
2023/04/11 08:32:59;;;;;;;1999.90;999.90;;;;;;;8.55;98.50;97816.44;5136184;27;20023;-80
2023/04/11 08:35:25;;;;;;;1999.90;999.90;;;;;;;8.38;99.31;97791.47;5136050;27;20094;-76
2023/04/11 08:37:50;;;;;;;1999.90;999.90;;;;;;;8.59;98.86;97814.72;5135429;27;20088;-76
2023/04/11 08:40:15;;;;;;;1999.90;999.90;;;;;;;8.49;99.91;97817.53;5116887;27;20380;-75
2023/04/11 08:42:41;;;;;;;1999.90;999.90;;;;;;;8.64;98.71;97822.06;5136057;27;20020;-76
2023/04/11 08:45:09;;;;;;;1999.90;999.90;;;;;;;8.34;100.00;97814.94;5135385;27;20032;-75
2023/04/11 08:47:35;;;;;;;1999.90;999.90;;;;;;;8.64;99.20;97822.88;5118469;27;20048;-75
2023/04/11 08:50:01;;;;;;;1999.90;999.90;;;;;;;8.46;98.82;97816.19;5117936;27;20480;-77
2023/04/11 08:52:27;;;;;;;1999.90;999.90;;;;;;;8.60;98.73;97805.47;5136269;27;20071;-75
2023/04/11 08:54:56;;;;;;;1999.90;999.90;;;;;;;8.76;96.73;97803.41;5136760;27;20425;-75
2023/04/11 08:57:30;;;;;;;1999.90;999.90;;;;;;;8.66;97.55;97795.31;5138682;27;20023;-76
2023/04/11 08:59:59;;;;;;;1999.90;999.90;;;;;;;8.89;96.27;97781.75;5140860;27;20472;-77
2023/04/11 09:02:25;;;;;;;1999.90;999.90;;;;;;;8.80;96.56;97793.56;5138339;27;20015;-75
2023/04/11 09:04:50;;;;;;;1999.90;999.90;;;;;;;9.25;96.69;97797.69;5134957;27;20031;-76
2023/04/11 09:07:17;;;;;;;1999.90;999.90;;;;;;;9.63;92.96;97785.75;5135140;27;20023;-76
2023/04/11 09:09:43;;;;;;;1999.90;999.90;;;;;;;9.77;91.48;97797.63;5115953;27;20035;-77
2023/04/11 09:12:08;;;;;;;1999.90;999.90;;;;;;;9.67;91.60;97784.91;5116162;27;20027;-78
2023/04/11 09:14:34;;;;;;;1999.90;999.90;;;;;;;9.38;94.07;97784.19;5135510;27;20042;-75
2023/04/11 09:17:02;;;;;;;1999.90;999.90;;;;;;;9.81;91.87;97765.03;5135305;27;20471;-76
2023/04/11 09:19:30;;;;;;;1999.90;999.90;;;;;;;9.72;92.71;97780.47;5117012;27;20038;-75
2023/04/11 09:22:01;;;;;;;1999.90;999.90;;;;;;;9.27;95.58;97770.94;5134515;27;20050;-78
2023/04/11 09:24:29;;;;;;;1999.90;999.90;;;;;;;9.69;93.87;97766.28;5135333;27;20023;-75
2023/04/11 09:27:09;;;;;;;1999.90;999.90;;;;;;;9.72;92.64;97750.41;5135943;27;20027;-77
2023/04/11 09:29:41;;;;;;;1999.90;999.90;;;;;;;9.99;91.83;97758.78;5121847;27;20023;-76
2023/04/11 09:32:07;;;;;;;1999.90;999.90;;;;;;;9.50;94.95;97748.25;5136954;27;20031;-76
2023/04/11 09:34:36;;;;;;;1999.90;999.90;;;;;;;9.41;95.85;97747.28;5134565;27;20031;-75
2023/04/11 09:37:02;;;;;;;1999.90;999.90;;;;;;;9.92;92.86;97769.25;5116158;27;20061;-77
2023/04/11 09:39:28;;;;;;;1999.90;999.90;;;;;;;10.02;91.19;97749.97;5134615;27;20015;-77
2023/04/11 09:41:55;;;;;;;1999.90;999.90;;;;;;;10.04;91.68;97750.50;5134679;27;20386;-77
2023/04/11 09:44:35;;;;;;;1999.90;999.90;;;;;;;10.31;88.80;97747.88;5133812;27;20031;-77
2023/04/11 09:47:00;;;;;;;1999.90;999.90;;;;;;;10.19;88.39;97745.63;5134473;27;20045;-76
2023/04/11 09:49:26;;;;;;;1999.90;999.90;;;;;;;10.30;88.64;97757.22;5134604;27;20479;-77
2023/04/11 09:51:52;;;;;;;1999.90;999.90;;;;;;;10.48;88.08;97759.09;5134320;27;20091;-77
2023/04/11 09:54:21;;;;;;;1999.90;999.90;;;;;;;10.65;86.95;97747.59;5134251;27;20537;-79
2023/04/11 09:56:49;;;;;;;1999.90;999.90;;;;;;;10.80;84.95;97733.66;5134259;27;20030;-77
2023/04/11 09:59:18;;;;;;;1999.90;999.90;;;;;;;10.90;84.63;97735.38;5133867;27;20386;-78
2023/04/11 10:01:47;;;;;;;1999.90;999.90;;;;;;;10.67;84.09;97716.09;5134268;27;20356;-76
2023/04/11 10:04:13;;;;;;;1999.90;999.90;;;;;;;10.54;84.66;97705.13;5134276;27;20035;-79
2023/04/11 10:06:56;;;;;;;1999.90;999.90;;;;;;;10.49;86.30;97722.44;5134225;27;20027;-76
2023/04/11 10:09:22;;;;;;;1999.90;999.90;;;;;;;10.64;85.39;97713.97;5133561;27;20055;-78
2023/04/11 10:11:48;;;;;;;1999.90;999.90;;;;;;;10.83;87.46;97713.88;5133577;27;20414;-78
2023/04/11 10:14:38;;;;;;;1999.90;999.90;;;;;;;11.03;84.22;97721.69;5133558;27;20489;-78
2023/04/11 10:17:13;;;;;;;1999.90;999.90;;;;;;;10.86;82.88;97716.00;5133483;27;20062;-77
2023/04/11 10:19:45;;;;;;;1999.90;999.90;;;;;;;10.83;84.30;97713.88;5133504;27;20027;-77
2023/04/11 10:22:42;;;;;;;1999.90;999.90;;;;;;;11.30;83.54;97718.16;5133457;27;20062;-77
2023/04/11 10:25:17;;;;;;;1999.90;999.90;;;;;;;11.53;83.36;97727.22;5133816;27;20035;-77
2023/04/11 10:27:59;;;;;;;1999.90;999.90;;;;;;;11.46;80.82;97689.31;5133551;27;20019;-76
2023/04/11 10:30:39;;;;;;;1999.90;999.90;;;;;;;11.76;80.72;97732.50;5133267;27;20044;-78
2023/04/11 10:33:12;;;;;;;1999.90;999.90;;;;;;;11.67;81.69;97722.53;5114607;28;20031;-75
2023/04/11 10:35:57;;;;;;;1999.90;999.90;;;;;;;11.87;80.69;97718.56;5133046;27;20054;-75
2023/04/11 10:38:45;;;;;;;1999.90;999.90;;;;;;;11.91;80.11;97714.06;5133129;27;20491;-75
2023/04/11 10:41:18;;;;;;;1999.90;999.90;;;;;;;11.91;79.24;97705.84;5133261;27;20109;-75
2023/04/11 10:43:45;;;;;;;1999.90;999.90;;;;;;;11.57;79.96;97709.88;5133086;27;20129;-75
2023/04/11 10:46:22;;;;;;;1999.90;999.90;;;;;;;11.29;81.98;97702.81;5133125;27;20015;-76
2023/04/11 10:48:57;;;;;;;1999.90;999.90;;;;;;;11.69;80.11;97701.94;5132697;27;20026;-76
2023/04/11 10:51:24;;;;;;;1999.90;999.90;;;;;;;11.80;78.88;97689.66;5132893;27;20103;-75
2023/04/11 10:53:51;;;;;;;1999.90;999.90;;;;;;;12.03;77.34;97689.69;5114711;27;20407;-75